TAF LFBU
AMD LFBU 082103Z 0821/0918 CNL=
METAR LFBU
LFBU 082230Z AUTO 22004KT CAVOK 03/02 Q1010=
LFBU 082200Z AUTO 22005KT CAVOK 03/02 Q1009=
LFBU 082130Z AUTO 20004KT 9999 FEW025 SCT190 03/02 Q1009=
LFBU 082100Z AUTO VRB02KT 9999 FEW049 03/02 Q1009 BECMG 3000 BR=
LFBU 082030Z AUTO 22004KT CAVOK 04/02 Q1008 BECMG 3000 BR=
WC LFBU
WS LFBU
WV LFBU